Estación Meteorológica Peña el Pijo (Robertgarden) [ 11/20/18 00:41:02 CET ]

Fecha Hora Presion(HPa) Temp (°C) Humedad % Rocio (°C) Viento ( m/s) Direccion Lluvia 1Hora(mm) Lluvia 24H(mm) LLuvia Total(mm)
2018-Nov-15 01:01:40 1007.900 10.2 87 8.1       4.66 106.70
2018-Nov-15 02:01:46 1006.900 9.9 88 8.0       4.66 106.70
2018-Nov-15 03:01:44 1006.700 9.9 89 8.1     0.51 5.18 107.22
2018-Nov-15 04:01:38 1006.500 9.9 90 8.3       5.18 107.22
2018-Nov-15 05:03:08 1006.300 9.5 90 7.9     2.07 7.25 109.29
2018-Nov-15 06:05:16 1006.600 8.9 91 7.5     4.66 11.39 113.96
2018-Nov-15 07:01:44 1006.100 8.1 91 6.8     1.55 12.95 115.51
2018-Nov-15 08:01:48 1006.300 8.1 91 6.8     0.51 11.91 116.03
2018-Nov-15 09:01:59 1007.100 8.5 91 7.1     0.51 12.43 116.55
2018-Nov-15 10:01:36 1007.200 9.1 92 7.9       10.87 116.55
2018-Nov-15 11:01:45 1007.500 10.3 92 9.0       10.36 116.55
2018-Nov-15 12:02:09 1007.000 12.7 92 11.4       9.84 116.55
2018-Nov-15 13:01:54 1006.700 12.8 87 10.7       9.84 116.55
2018-Nov-15 14:01:47 1006.300 12.9 85 10.4 0.9 NE   9.84 116.55
2018-Nov-15 15:01:34 1006.300 11.6 84 9.0     0.51 10.36 117.06
2018-Nov-15 16:01:35 1006.500 10.8 87 8.7     1.03 11.39 118.10
2018-Nov-15 17:01:55 1006.600 10.5 88 8.6       11.39 118.10
2018-Nov-15 18:01:55 1006.700 10.2 88 8.3       11.39 118.10
2018-Nov-15 19:01:49 1007.200 9.3 89 7.6       11.39 118.10
2018-Nov-15 20:01:50 1007.800 9.5 90 7.9       11.39 118.10
2018-Nov-15 21:01:39 1008.000 8.4 90 6.9       11.39 118.10
2018-Nov-15 22:02:02 1008.400 8.9 91 7.5       11.39 118.10
2018-Nov-15 23:02:39 1008.800 8.4 91 7.0       11.39 118.10

Temperatura Máxima:12°    Temperatura Mínima:
Presión Máxima:1008.800 Hpa    Presión Mínima:1006.100 Hpa


Volver